sensor_id;sensor_type;location;lat;lon;timestamp;temperature;humidity
26595;DHT22;14238;49.496;8.154;2022-12-07T00:00:53;3.40;99.90
26595;DHT22;14238;49.496;8.154;2022-12-07T00:03:19;3.50;99.90
26595;DHT22;14238;49.496;8.154;2022-12-07T00:05:45;3.50;99.90
26595;DHT22;14238;49.496;8.154;2022-12-07T00:08:10;3.50;99.90
26595;DHT22;14238;49.496;8.154;2022-12-07T00:10:36;3.60;99.90
26595;DHT22;14238;49.496;8.154;2022-12-07T00:13:01;3.50;99.90
26595;DHT22;14238;49.496;8.154;2022-12-07T00:15:27;3.50;99.90
26595;DHT22;14238;49.496;8.154;2022-12-07T00:17:52;3.50;99.90
26595;DHT22;14238;49.496;8.154;2022-12-07T00:20:18;3.50;99.90
26595;DHT22;14238;49.496;8.154;2022-12-07T00:22:43;3.50;99.90
26595;DHT22;14238;49.496;8.154;2022-12-07T00:25:09;3.50;99.90
26595;DHT22;14238;49.496;8.154;2022-12-07T00:27:34;3.50;99.90
26595;DHT22;14238;49.496;8.154;2022-12-07T00:30:00;3.50;99.90
26595;DHT22;14238;49.496;8.154;2022-12-07T00:32:26;3.50;99.90
26595;DHT22;14238;49.496;8.154;2022-12-07T00:34:51;3.60;99.90
26595;DHT22;14238;49.496;8.154;2022-12-07T00:37:17;3.50;99.90
26595;DHT22;14238;49.496;8.154;2022-12-07T00:39:43;3.50;99.90
26595;DHT22;14238;49.496;8.154;2022-12-07T00:42:08;3.50;99.90
26595;DHT22;14238;49.496;8.154;2022-12-07T00:44:34;3.50;99.90
26595;DHT22;14238;49.496;8.154;2022-12-07T00:46:59;3.50;99.90
26595;DHT22;14238;49.496;8.154;2022-12-07T00:49:25;3.50;99.90
26595;DHT22;14238;49.496;8.154;2022-12-07T00:51:50;3.60;99.90
26595;DHT22;14238;49.496;8.154;2022-12-07T00:54:16;3.50;99.90
26595;DHT22;14238;49.496;8.154;2022-12-07T00:56:41;3.50;99.90
26595;DHT22;14238;49.496;8.154;2022-12-07T00:59:10;3.50;99.90
26595;DHT22;14238;49.496;8.154;2022-12-07T01:01:36;3.50;99.90
26595;DHT22;14238;49.496;8.154;2022-12-07T01:04:02;3.50;99.90
26595;DHT22;14238;49.496;8.154;2022-12-07T01:06:29;3.50;99.90
26595;DHT22;14238;49.496;8.154;2022-12-07T01:08:55;3.40;99.90
26595;DHT22;14238;49.496;8.154;2022-12-07T01:11:23;3.40;99.90
26595;DHT22;14238;49.496;8.154;2022-12-07T01:13:53;3.50;99.90
26595;DHT22;14238;49.496;8.154;2022-12-07T01:16:21;3.50;99.90
26595;DHT22;14238;49.496;8.154;2022-12-07T01:18:49;3.50;99.90
26595;DHT22;14238;49.496;8.154;2022-12-07T01:21:23;3.50;99.90
26595;DHT22;14238;49.496;8.154;2022-12-07T01:23:50;3.50;99.90
26595;DHT22;14238;49.496;8.154;2022-12-07T01:26:18;3.50;99.90
26595;DHT22;14238;49.496;8.154;2022-12-07T01:28:44;3.50;99.90
26595;DHT22;14238;49.496;8.154;2022-12-07T01:31:21;3.50;99.90
26595;DHT22;14238;49.496;8.154;2022-12-07T01:33:50;3.40;99.90
26595;DHT22;14238;49.496;8.154;2022-12-07T01:36:30;3.40;99.90
26595;DHT22;14238;49.496;8.154;2022-12-07T01:39:02;3.40;99.90
26595;DHT22;14238;49.496;8.154;2022-12-07T01:41:31;3.40;99.90
26595;DHT22;14238;49.496;8.154;2022-12-07T01:46:49;3.30;99.90
26595;DHT22;14238;49.496;8.154;2022-12-07T01:49:23;3.40;99.90
26595;DHT22;14238;49.496;8.154;2022-12-07T01:51:52;3.40;99.90
26595;DHT22;14238;49.496;8.154;2022-12-07T01:54:20;3.40;99.90
26595;DHT22;14238;49.496;8.154;2022-12-07T01:56:52;3.30;99.90
26595;DHT22;14238;49.496;8.154;2022-12-07T01:59:19;3.30;99.90
26595;DHT22;14238;49.496;8.154;2022-12-07T02:01:47;3.30;99.90
26595;DHT22;14238;49.496;8.154;2022-12-07T02:04:12;3.30;99.90
26595;DHT22;14238;49.496;8.154;2022-12-07T02:06:38;3.30;99.90
26595;DHT22;14238;49.496;8.154;2022-12-07T02:09:04;3.30;99.90
26595;DHT22;14238;49.496;8.154;2022-12-07T02:11:30;3.30;99.90
26595;DHT22;14238;49.496;8.154;2022-12-07T02:13:56;3.40;99.90
26595;DHT22;14238;49.496;8.154;2022-12-07T02:22:29;3.40;99.90
26595;DHT22;14238;49.496;8.154;2022-12-07T02:25:30;3.40;99.90
26595;DHT22;14238;49.496;8.154;2022-12-07T02:28:37;3.30;99.90
26595;DHT22;14238;49.496;8.154;2022-12-07T02:31:20;3.30;99.90
26595;DHT22;14238;49.496;8.154;2022-12-07T02:33:56;3.30;99.90
26595;DHT22;14238;49.496;8.154;2022-12-07T02:36:28;3.30;99.90
26595;DHT22;14238;49.496;8.154;2022-12-07T02:41:47;3.30;99.90
26595;DHT22;14238;49.496;8.154;2022-12-07T02:44:15;3.30;99.90
26595;DHT22;14238;49.496;8.154;2022-12-07T02:46:55;3.40;99.90
26595;DHT22;14238;49.496;8.154;2022-12-07T02:49:23;3.40;99.90
26595;DHT22;14238;49.496;8.154;2022-12-07T02:51:49;3.40;99.90
26595;DHT22;14238;49.496;8.154;2022-12-07T02:54:18;3.40;99.90
26595;DHT22;14238;49.496;8.154;2022-12-07T03:07:37;3.60;99.90
26595;DHT22;14238;49.496;8.154;2022-12-07T03:15:27;3.60;99.90
26595;DHT22;14238;49.496;8.154;2022-12-07T03:17:56;3.50;99.90
26595;DHT22;14238;49.496;8.154;2022-12-07T03:20:24;3.60;99.90
26595;DHT22;14238;49.496;8.154;2022-12-07T03:22:52;3.60;99.90
26595;DHT22;14238;49.496;8.154;2022-12-07T03:25:19;3.60;99.90
26595;DHT22;14238;49.496;8.154;2022-12-07T03:27:51;3.50;99.90
26595;DHT22;14238;49.496;8.154;2022-12-07T03:30:24;3.50;99.90
26595;DHT22;14238;49.496;8.154;2022-12-07T03:33:03;3.50;99.90
26595;DHT22;14238;49.496;8.154;2022-12-07T03:35:37;3.60;99.90
26595;DHT22;14238;49.496;8.154;2022-12-07T03:43:29;3.70;99.90
26595;DHT22;14238;49.496;8.154;2022-12-07T03:46:27;3.80;99.90
26595;DHT22;14238;49.496;8.154;2022-12-07T03:49:11;3.80;99.90
26595;DHT22;14238;49.496;8.154;2022-12-07T03:51:50;3.80;99.90
26595;DHT22;14238;49.496;8.154;2022-12-07T03:54:34;3.70;99.90
26595;DHT22;14238;49.496;8.154;2022-12-07T03:57:03;3.60;99.90
26595;DHT22;14238;49.496;8.154;2022-12-07T03:59:30;3.60;99.90
26595;DHT22;14238;49.496;8.154;2022-12-07T04:01:59;3.70;99.90
26595;DHT22;14238;49.496;8.154;2022-12-07T04:04:26;3.70;99.90
26595;DHT22;14238;49.496;8.154;2022-12-07T04:06:53;3.70;99.90
26595;DHT22;14238;49.496;8.154;2022-12-07T04:09:18;3.80;99.90
26595;DHT22;14238;49.496;8.154;2022-12-07T04:11:44;3.70;99.90
26595;DHT22;14238;49.496;8.154;2022-12-07T04:14:10;3.70;99.90
26595;DHT22;14238;49.496;8.154;2022-12-07T04:16:49;3.60;99.90
26595;DHT22;14238;49.496;8.154;2022-12-07T04:19:15;3.60;99.90
26595;DHT22;14238;49.496;8.154;2022-12-07T04:21:42;3.60;99.90
26595;DHT22;14238;49.496;8.154;2022-12-07T04:24:08;3.50;99.90
26595;DHT22;14238;49.496;8.154;2022-12-07T04:26:33;3.50;99.90
26595;DHT22;14238;49.496;8.154;2022-12-07T04:28:59;3.50;99.90
26595;DHT22;14238;49.496;8.154;2022-12-07T04:31:24;3.50;99.90
26595;DHT22;14238;49.496;8.154;2022-12-07T04:33:50;3.50;99.90
26595;DHT22;14238;49.496;8.154;2022-12-07T04:36:15;3.50;99.90
26595;DHT22;14238;49.496;8.154;2022-12-07T04:38:41;3.50;99.90
26595;DHT22;14238;49.496;8.154;2022-12-07T04:41:08;3.50;99.90
26595;DHT22;14238;49.496;8.154;2022-12-07T04:43:34;3.40;99.90
26595;DHT22;14238;49.496;8.154;2022-12-07T04:46:00;3.40;99.90
26595;DHT22;14238;49.496;8.154;2022-12-07T04:48:26;3.50;99.90
26595;DHT22;14238;49.496;8.154;2022-12-07T04:50:51;3.60;99.90
26595;DHT22;14238;49.496;8.154;2022-12-07T04:53:17;3.60;99.90
26595;DHT22;14238;49.496;8.154;2022-12-07T04:55:44;3.60;99.90
26595;DHT22;14238;49.496;8.154;2022-12-07T04:58:10;3.60;99.90
26595;DHT22;14238;49.496;8.154;2022-12-07T05:00:36;3.60;99.90
26595;DHT22;14238;49.496;8.154;2022-12-07T05:03:01;3.60;99.90
26595;DHT22;14238;49.496;8.154;2022-12-07T05:05:27;3.60;99.90
26595;DHT22;14238;49.496;8.154;2022-12-07T05:07:53;3.60;99.90
26595;DHT22;14238;49.496;8.154;2022-12-07T05:10:18;3.60;99.90
26595;DHT22;14238;49.496;8.154;2022-12-07T05:12:44;3.60;99.90
26595;DHT22;14238;49.496;8.154;2022-12-07T05:15:11;3.60;99.90
26595;DHT22;14238;49.496;8.154;2022-12-07T05:17:37;3.50;99.90
26595;DHT22;14238;49.496;8.154;2022-12-07T05:20:03;3.50;99.90
26595;DHT22;14238;49.496;8.154;2022-12-07T05:22:28;3.50;99.90
26595;DHT22;14238;49.496;8.154;2022-12-07T05:24:55;3.50;99.90
26595;DHT22;14238;49.496;8.154;2022-12-07T05:27:21;3.60;99.90
26595;DHT22;14238;49.496;8.154;2022-12-07T05:29:46;3.60;99.90
26595;DHT22;14238;49.496;8.154;2022-12-07T05:32:12;3.60;99.90
26595;DHT22;14238;49.496;8.154;2022-12-07T05:34:37;3.50;99.90
26595;DHT22;14238;49.496;8.154;2022-12-07T05:37:03;3.50;99.90
26595;DHT22;14238;49.496;8.154;2022-12-07T05:39:29;3.50;99.90
26595;DHT22;14238;49.496;8.154;2022-12-07T05:41:55;3.50;99.90
26595;DHT22;14238;49.496;8.154;2022-12-07T05:44:39;3.50;99.90
26595;DHT22;14238;49.496;8.154;2022-12-07T05:47:05;3.60;99.90
26595;DHT22;14238;49.496;8.154;2022-12-07T05:49:31;3.60;99.90
26595;DHT22;14238;49.496;8.154;2022-12-07T05:51:57;3.50;99.90
26595;DHT22;14238;49.496;8.154;2022-12-07T05:54:22;3.50;99.90
26595;DHT22;14238;49.496;8.154;2022-12-07T05:56:48;3.50;99.90
26595;DHT22;14238;49.496;8.154;2022-12-07T05:59:13;3.60;99.90
26595;DHT22;14238;49.496;8.154;2022-12-07T06:01:58;3.50;99.90
26595;DHT22;14238;49.496;8.154;2022-12-07T06:04:26;3.60;99.90
26595;DHT22;14238;49.496;8.154;2022-12-07T06:06:53;3.50;99.90
26595;DHT22;14238;49.496;8.154;2022-12-07T06:09:19;3.50;99.90
26595;DHT22;14238;49.496;8.154;2022-12-07T06:11:45;3.50;99.90
26595;DHT22;14238;49.496;8.154;2022-12-07T06:14:30;3.50;99.90
26595;DHT22;14238;49.496;8.154;2022-12-07T06:16:55;3.50;99.90
26595;DHT22;14238;49.496;8.154;2022-12-07T06:19:21;3.50;99.90
26595;DHT22;14238;49.496;8.154;2022-12-07T06:21:47;3.50;99.90
26595;DHT22;14238;49.496;8.154;2022-12-07T06:24:14;3.50;99.90
26595;DHT22;14238;49.496;8.154;2022-12-07T06:26:40;3.50;99.90
26595;DHT22;14238;49.496;8.154;2022-12-07T06:29:08;3.50;99.90
26595;DHT22;14238;49.496;8.154;2022-12-07T06:31:35;3.40;99.90
26595;DHT22;14238;49.496;8.154;2022-12-07T06:34:03;3.50;99.90
26595;DHT22;14238;49.496;8.154;2022-12-07T06:36:30;3.40;99.90
26595;DHT22;14238;49.496;8.154;2022-12-07T06:38:56;3.40;99.90
26595;DHT22;14238;49.496;8.154;2022-12-07T06:41:22;3.40;99.90
26595;DHT22;14238;49.496;8.154;2022-12-07T06:43:47;3.40;99.90
26595;DHT22;14238;49.496;8.154;2022-12-07T06:46:14;3.40;99.90
26595;DHT22;14238;49.496;8.154;2022-12-07T06:48:40;3.40;99.90
26595;DHT22;14238;49.496;8.154;2022-12-07T06:51:06;3.30;99.90
26595;DHT22;14238;49.496;8.154;2022-12-07T06:53:31;3.40;99.90
26595;DHT22;14238;49.496;8.154;2022-12-07T06:55:57;3.40;99.90
26595;DHT22;14238;49.496;8.154;2022-12-07T06:58:22;3.40;99.90
26595;DHT22;14238;49.496;8.154;2022-12-07T07:00:49;3.40;99.90
26595;DHT22;14238;49.496;8.154;2022-12-07T07:03:15;3.30;99.90
26595;DHT22;14238;49.496;8.154;2022-12-07T07:05:42;3.30;99.90
26595;DHT22;14238;49.496;8.154;2022-12-07T07:08:08;3.30;99.90
26595;DHT22;14238;49.496;8.154;2022-12-07T07:10:33;3.30;99.90
26595;DHT22;14238;49.496;8.154;2022-12-07T07:12:59;3.30;99.90
26595;DHT22;14238;49.496;8.154;2022-12-07T07:15:24;3.40;99.90
26595;DHT22;14238;49.496;8.154;2022-12-07T07:17:50;3.40;99.90
26595;DHT22;14238;49.496;8.154;2022-12-07T07:20:16;3.40;99.90
26595;DHT22;14238;49.496;8.154;2022-12-07T07:22:41;3.40;99.90
26595;DHT22;14238;49.496;8.154;2022-12-07T07:25:07;3.40;99.90
26595;DHT22;14238;49.496;8.154;2022-12-07T07:27:32;3.40;99.90
26595;DHT22;14238;49.496;8.154;2022-12-07T07:29:58;3.40;99.90
26595;DHT22;14238;49.496;8.154;2022-12-07T07:32:24;3.40;99.90
26595;DHT22;14238;49.496;8.154;2022-12-07T07:34:49;3.40;99.90
26595;DHT22;14238;49.496;8.154;2022-12-07T07:37:15;3.30;99.90
26595;DHT22;14238;49.496;8.154;2022-12-07T07:39:40;3.40;99.90
26595;DHT22;14238;49.496;8.154;2022-12-07T07:42:06;3.50;99.90
26595;DHT22;14238;49.496;8.154;2022-12-07T07:44:33;3.40;99.90
26595;DHT22;14238;49.496;8.154;2022-12-07T07:46:59;3.40;99.90
26595;DHT22;14238;49.496;8.154;2022-12-07T07:49:25;3.40;99.90
26595;DHT22;14238;49.496;8.154;2022-12-07T07:51:50;3.40;99.90
26595;DHT22;14238;49.496;8.154;2022-12-07T07:54:16;3.40;99.90
26595;DHT22;14238;49.496;8.154;2022-12-07T07:56:42;3.50;99.90
26595;DHT22;14238;49.496;8.154;2022-12-07T07:59:07;3.50;99.90
26595;DHT22;14238;49.496;8.154;2022-12-07T08:01:33;3.50;99.90
26595;DHT22;14238;49.496;8.154;2022-12-07T08:03:59;3.60;99.90
26595;DHT22;14238;49.496;8.154;2022-12-07T08:06:25;3.60;99.90
26595;DHT22;14238;49.496;8.154;2022-12-07T08:08:50;3.70;99.90
26595;DHT22;14238;49.496;8.154;2022-12-07T08:11:16;3.70;99.90
26595;DHT22;14238;49.496;8.154;2022-12-07T08:13:42;3.60;99.90
26595;DHT22;14238;49.496;8.154;2022-12-07T08:16:10;3.80;99.90
26595;DHT22;14238;49.496;8.154;2022-12-07T08:18:40;3.80;99.90
26595;DHT22;14238;49.496;8.154;2022-12-07T08:21:07;3.90;99.90
26595;DHT22;14238;49.496;8.154;2022-12-07T08:23:34;3.90;99.90
26595;DHT22;14238;49.496;8.154;2022-12-07T08:26:01;4.00;99.90
26595;DHT22;14238;49.496;8.154;2022-12-07T08:28:28;4.00;99.90
26595;DHT22;14238;49.496;8.154;2022-12-07T08:30:59;4.10;99.90
26595;DHT22;14238;49.496;8.154;2022-12-07T08:33:26;4.10;99.90
26595;DHT22;14238;49.496;8.154;2022-12-07T08:35:52;4.20;99.90
26595;DHT22;14238;49.496;8.154;2022-12-07T08:38:17;4.20;99.90
26595;DHT22;14238;49.496;8.154;2022-12-07T08:40:43;4.20;99.90
26595;DHT22;14238;49.496;8.154;2022-12-07T08:43:08;4.20;99.90
26595;DHT22;14238;49.496;8.154;2022-12-07T08:45:34;4.30;99.90
26595;DHT22;14238;49.496;8.154;2022-12-07T08:48:06;4.30;99.90
26595;DHT22;14238;49.496;8.154;2022-12-07T08:50:34;4.30;99.90
26595;DHT22;14238;49.496;8.154;2022-12-07T08:53:02;4.30;99.90
26595;DHT22;14238;49.496;8.154;2022-12-07T08:55:30;4.30;99.90
26595;DHT22;14238;49.496;8.154;2022-12-07T08:57:58;4.40;99.90
26595;DHT22;14238;49.496;8.154;2022-12-07T09:00:24;4.40;99.90
26595;DHT22;14238;49.496;8.154;2022-12-07T09:02:50;4.40;99.90
26595;DHT22;14238;49.496;8.154;2022-12-07T09:05:15;4.40;99.90
26595;DHT22;14238;49.496;8.154;2022-12-07T09:07:43;4.30;99.90
26595;DHT22;14238;49.496;8.154;2022-12-07T09:10:11;4.30;99.90
26595;DHT22;14238;49.496;8.154;2022-12-07T09:12:37;4.30;99.90
26595;DHT22;14238;49.496;8.154;2022-12-07T09:15:02;4.30;99.90
26595;DHT22;14238;49.496;8.154;2022-12-07T09:17:32;4.30;99.90
26595;DHT22;14238;49.496;8.154;2022-12-07T09:19:58;4.30;99.90
26595;DHT22;14238;49.496;8.154;2022-12-07T09:22:29;4.40;99.90
26595;DHT22;14238;49.496;8.154;2022-12-07T09:24:55;4.40;99.90
26595;DHT22;14238;49.496;8.154;2022-12-07T09:27:20;4.50;99.90
26595;DHT22;14238;49.496;8.154;2022-12-07T09:29:46;4.50;99.90
26595;DHT22;14238;49.496;8.154;2022-12-07T09:32:11;4.40;99.90
26595;DHT22;14238;49.496;8.154;2022-12-07T09:34:37;4.40;99.90
26595;DHT22;14238;49.496;8.154;2022-12-07T09:37:02;4.40;99.90
26595;DHT22;14238;49.496;8.154;2022-12-07T09:39:28;4.50;99.90
26595;DHT22;14238;49.496;8.154;2022-12-07T09:41:54;4.60;99.90
26595;DHT22;14238;49.496;8.154;2022-12-07T09:44:25;4.50;99.90
26595;DHT22;14238;49.496;8.154;2022-12-07T09:46:52;4.50;99.90
26595;DHT22;14238;49.496;8.154;2022-12-07T09:49:21;4.40;99.90
26595;DHT22;14238;49.496;8.154;2022-12-07T09:51:47;4.40;99.90
26595;DHT22;14238;49.496;8.154;2022-12-07T09:54:15;4.40;99.90
26595;DHT22;14238;49.496;8.154;2022-12-07T09:56:41;4.50;99.90
26595;DHT22;14238;49.496;8.154;2022-12-07T09:59:13;4.50;99.90
26595;DHT22;14238;49.496;8.154;2022-12-07T10:01:41;4.50;99.90
26595;DHT22;14238;49.496;8.154;2022-12-07T10:04:15;4.40;99.90
26595;DHT22;14238;49.496;8.154;2022-12-07T10:06:42;4.40;99.90
26595;DHT22;14238;49.496;8.154;2022-12-07T10:09:10;4.40;99.90
26595;DHT22;14238;49.496;8.154;2022-12-07T10:12:06;4.40;99.90
26595;DHT22;14238;49.496;8.154;2022-12-07T10:14:35;4.50;99.90
26595;DHT22;14238;49.496;8.154;2022-12-07T10:17:01;4.60;99.90
26595;DHT22;14238;49.496;8.154;2022-12-07T10:19:30;4.70;99.90
26595;DHT22;14238;49.496;8.154;2022-12-07T10:22:05;4.80;99.90
26595;DHT22;14238;49.496;8.154;2022-12-07T10:24:31;4.80;99.90
26595;DHT22;14238;49.496;8.154;2022-12-07T10:26:57;4.80;99.90
26595;DHT22;14238;49.496;8.154;2022-12-07T10:29:31;4.90;99.90
26595;DHT22;14238;49.496;8.154;2022-12-07T10:32:00;4.90;99.90
26595;DHT22;14238;49.496;8.154;2022-12-07T10:34:29;5.00;99.90
26595;DHT22;14238;49.496;8.154;2022-12-07T10:37:19;5.10;99.90
26595;DHT22;14238;49.496;8.154;2022-12-07T10:39:46;5.10;99.90
26595;DHT22;14238;49.496;8.154;2022-12-07T10:42:23;5.10;99.90
26595;DHT22;14238;49.496;8.154;2022-12-07T10:45:35;5.00;99.90
26595;DHT22;14238;49.496;8.154;2022-12-07T10:47:43;5.10;99.90
26595;DHT22;14238;49.496;8.154;2022-12-07T11:05:30;5.20;99.90
26595;DHT22;14238;49.496;8.154;2022-12-07T11:08:11;5.40;99.90
26595;DHT22;14238;49.496;8.154;2022-12-07T11:11:01;5.40;99.90
26595;DHT22;14238;49.496;8.154;2022-12-07T11:21:58;5.40;99.90
26595;DHT22;14238;49.496;8.154;2022-12-07T11:24:54;5.30;99.90
26595;DHT22;14238;49.496;8.154;2022-12-07T11:30:10;5.20;99.90
26595;DHT22;14238;49.496;8.154;2022-12-07T11:35:36;5.10;99.90
26595;DHT22;14238;49.496;8.154;2022-12-07T11:38:21;5.10;99.90
26595;DHT22;14238;49.496;8.154;2022-12-07T11:40:50;5.50;99.90
26595;DHT22;14238;49.496;8.154;2022-12-07T11:43:32;5.60;99.90
26595;DHT22;14238;49.496;8.154;2022-12-07T11:46:26;5.60;99.90
26595;DHT22;14238;49.496;8.154;2022-12-07T11:49:02;5.90;99.90
26595;DHT22;14238;49.496;8.154;2022-12-07T11:51:30;7.00;99.90
26595;DHT22;14238;49.496;8.154;2022-12-07T11:54:03;8.70;99.90
26595;DHT22;14238;49.496;8.154;2022-12-07T11:56:35;9.40;99.90
26595;DHT22;14238;49.496;8.154;2022-12-07T12:01:57;10.50;99.90
26595;DHT22;14238;49.496;8.154;2022-12-07T12:07:10;11.00;99.90
26595;DHT22;14238;49.496;8.154;2022-12-07T12:09:59;10.20;99.90
26595;DHT22;14238;49.496;8.154;2022-12-07T12:13:05;9.60;99.90
26595;DHT22;14238;49.496;8.154;2022-12-07T12:16:03;9.70;99.90
26595;DHT22;14238;49.496;8.154;2022-12-07T12:21:08;8.60;99.90
26595;DHT22;14238;49.496;8.154;2022-12-07T12:23:42;8.00;99.90
26595;DHT22;14238;49.496;8.154;2022-12-07T12:26:23;7.40;99.90
26595;DHT22;14238;49.496;8.154;2022-12-07T12:29:02;7.20;99.90
26595;DHT22;14238;49.496;8.154;2022-12-07T12:31:34;7.40;99.90
26595;DHT22;14238;49.496;8.154;2022-12-07T12:34:04;7.80;99.90
26595;DHT22;14238;49.496;8.154;2022-12-07T12:39:17;9.60;99.90
26595;DHT22;14238;49.496;8.154;2022-12-07T12:47:00;8.40;99.90
26595;DHT22;14238;49.496;8.154;2022-12-07T12:49:36;7.70;99.90
26595;DHT22;14238;49.496;8.154;2022-12-07T12:54:58;6.80;99.90
26595;DHT22;14238;49.496;8.154;2022-12-07T12:57:27;6.90;99.90
26595;DHT22;14238;49.496;8.154;2022-12-07T13:02:35;7.20;99.90
26595;DHT22;14238;49.496;8.154;2022-12-07T13:12:58;10.30;99.90
26595;DHT22;14238;49.496;8.154;2022-12-07T13:15:42;11.30;99.90
26595;DHT22;14238;49.496;8.154;2022-12-07T13:23:10;14.00;99.90
26595;DHT22;14238;49.496;8.154;2022-12-07T13:25:44;13.40;99.90
26595;DHT22;14238;49.496;8.154;2022-12-07T13:28:17;13.00;99.90
26595;DHT22;14238;49.496;8.154;2022-12-07T13:31:19;12.20;99.90
26595;DHT22;14238;49.496;8.154;2022-12-07T13:33:47;11.50;99.90
26595;DHT22;14238;49.496;8.154;2022-12-07T13:36:22;11.20;99.90
26595;DHT22;14238;49.496;8.154;2022-12-07T13:38:54;10.90;99.90
26595;DHT22;14238;49.496;8.154;2022-12-07T13:41:22;10.20;99.90
26595;DHT22;14238;49.496;8.154;2022-12-07T13:44:09;10.30;99.90
26595;DHT22;14238;49.496;8.154;2022-12-07T13:49:28;7.60;99.90
26595;DHT22;14238;49.496;8.154;2022-12-07T13:52:06;7.10;99.90
26595;DHT22;14238;49.496;8.154;2022-12-07T13:54:44;6.70;99.90
26595;DHT22;14238;49.496;8.154;2022-12-07T13:57:10;6.30;99.90
26595;DHT22;14238;49.496;8.154;2022-12-07T13:59:35;6.30;99.90
26595;DHT22;14238;49.496;8.154;2022-12-07T14:02:16;6.20;99.90
26595;DHT22;14238;49.496;8.154;2022-12-07T14:04:43;6.10;99.90
26595;DHT22;14238;49.496;8.154;2022-12-07T14:07:28;6.00;99.90
26595;DHT22;14238;49.496;8.154;2022-12-07T14:10:03;5.90;99.90
26595;DHT22;14238;49.496;8.154;2022-12-07T14:12:30;5.80;99.90
26595;DHT22;14238;49.496;8.154;2022-12-07T14:14:56;5.80;99.90
26595;DHT22;14238;49.496;8.154;2022-12-07T14:17:24;5.70;99.90
26595;DHT22;14238;49.496;8.154;2022-12-07T14:20:02;5.80;99.90
26595;DHT22;14238;49.496;8.154;2022-12-07T14:22:37;5.80;99.90
26595;DHT22;14238;49.496;8.154;2022-12-07T14:25:22;5.60;99.90
26595;DHT22;14238;49.496;8.154;2022-12-07T14:27:54;5.50;99.90
26595;DHT22;14238;49.496;8.154;2022-12-07T14:30:31;5.40;99.90
26595;DHT22;14238;49.496;8.154;2022-12-07T14:33:00;5.30;99.90
26595;DHT22;14238;49.496;8.154;2022-12-07T14:35:26;5.20;99.90
26595;DHT22;14238;49.496;8.154;2022-12-07T14:37:52;5.10;99.90
26595;DHT22;14238;49.496;8.154;2022-12-07T14:40:23;4.90;99.90
26595;DHT22;14238;49.496;8.154;2022-12-07T14:42:56;4.70;99.90
26595;DHT22;14238;49.496;8.154;2022-12-07T14:45:22;4.60;99.90
26595;DHT22;14238;49.496;8.154;2022-12-07T14:47:48;4.80;99.90
26595;DHT22;14238;49.496;8.154;2022-12-07T14:50:19;4.70;99.90
26595;DHT22;14238;49.496;8.154;2022-12-07T14:52:58;4.60;99.90
26595;DHT22;14238;49.496;8.154;2022-12-07T14:55:30;4.60;99.90
26595;DHT22;14238;49.496;8.154;2022-12-07T14:57:56;4.40;99.90
26595;DHT22;14238;49.496;8.154;2022-12-07T15:00:24;4.30;99.90
26595;DHT22;14238;49.496;8.154;2022-12-07T15:02:50;4.10;99.90
26595;DHT22;14238;49.496;8.154;2022-12-07T15:05:17;4.10;99.90
26595;DHT22;14238;49.496;8.154;2022-12-07T15:07:44;4.10;99.90
26595;DHT22;14238;49.496;8.154;2022-12-07T15:10:21;4.10;99.90
26595;DHT22;14238;49.496;8.154;2022-12-07T15:12:47;4.00;99.90
26595;DHT22;14238;49.496;8.154;2022-12-07T15:15:13;3.90;99.90
26595;DHT22;14238;49.496;8.154;2022-12-07T15:17:39;3.80;99.90
26595;DHT22;14238;49.496;8.154;2022-12-07T15:20:05;3.70;99.90
26595;DHT22;14238;49.496;8.154;2022-12-07T15:22:31;3.70;99.90
26595;DHT22;14238;49.496;8.154;2022-12-07T15:24:57;3.70;99.90
26595;DHT22;14238;49.496;8.154;2022-12-07T15:27:23;3.70;99.90
26595;DHT22;14238;49.496;8.154;2022-12-07T15:29:48;3.80;99.90
26595;DHT22;14238;49.496;8.154;2022-12-07T15:32:14;3.80;99.90
26595;DHT22;14238;49.496;8.154;2022-12-07T15:34:40;3.70;99.90
26595;DHT22;14238;49.496;8.154;2022-12-07T15:37:06;3.60;99.90
26595;DHT22;14238;49.496;8.154;2022-12-07T15:39:32;3.70;99.90
26595;DHT22;14238;49.496;8.154;2022-12-07T15:41:57;3.60;99.90
26595;DHT22;14238;49.496;8.154;2022-12-07T15:44:23;3.40;99.90
26595;DHT22;14238;49.496;8.154;2022-12-07T15:47:07;3.20;99.90
26595;DHT22;14238;49.496;8.154;2022-12-07T15:49:33;3.40;99.90
26595;DHT22;14238;49.496;8.154;2022-12-07T15:51:58;3.50;99.90
26595;DHT22;14238;49.496;8.154;2022-12-07T15:54:26;3.50;99.90
26595;DHT22;14238;49.496;8.154;2022-12-07T15:56:52;3.40;99.90
26595;DHT22;14238;49.496;8.154;2022-12-07T15:59:18;3.30;99.90
26595;DHT22;14238;49.496;8.154;2022-12-07T16:01:44;3.30;99.90
26595;DHT22;14238;49.496;8.154;2022-12-07T16:04:10;3.30;99.90
26595;DHT22;14238;49.496;8.154;2022-12-07T16:06:35;3.30;99.90
26595;DHT22;14238;49.496;8.154;2022-12-07T16:09:01;3.30;99.90
26595;DHT22;14238;49.496;8.154;2022-12-07T16:11:27;3.20;99.90
26595;DHT22;14238;49.496;8.154;2022-12-07T16:13:52;3.30;99.90
26595;DHT22;14238;49.496;8.154;2022-12-07T16:16:19;3.30;99.90
26595;DHT22;14238;49.496;8.154;2022-12-07T16:18:46;3.40;99.90
26595;DHT22;14238;49.496;8.154;2022-12-07T16:21:13;3.40;99.90
26595;DHT22;14238;49.496;8.154;2022-12-07T16:23:39;3.30;99.90
26595;DHT22;14238;49.496;8.154;2022-12-07T16:26:12;3.20;99.90
26595;DHT22;14238;49.496;8.154;2022-12-07T16:28:38;3.30;99.90
26595;DHT22;14238;49.496;8.154;2022-12-07T16:31:13;3.40;99.90
26595;DHT22;14238;49.496;8.154;2022-12-07T16:33:39;3.40;99.90
26595;DHT22;14238;49.496;8.154;2022-12-07T16:36:06;3.30;99.90
26595;DHT22;14238;49.496;8.154;2022-12-07T16:38:33;3.30;99.90
26595;DHT22;14238;49.496;8.154;2022-12-07T16:40:58;3.20;99.90
26595;DHT22;14238;49.496;8.154;2022-12-07T16:43:24;3.20;99.90
26595;DHT22;14238;49.496;8.154;2022-12-07T16:45:50;3.20;99.90
26595;DHT22;14238;49.496;8.154;2022-12-07T16:48:16;3.20;99.90
26595;DHT22;14238;49.496;8.154;2022-12-07T16:50:43;3.30;99.90
26595;DHT22;14238;49.496;8.154;2022-12-07T16:53:12;3.20;99.90
26595;DHT22;14238;49.496;8.154;2022-12-07T16:55:39;3.20;99.90
26595;DHT22;14238;49.496;8.154;2022-12-07T16:58:05;3.10;99.90
26595;DHT22;14238;49.496;8.154;2022-12-07T17:00:31;3.20;99.90
26595;DHT22;14238;49.496;8.154;2022-12-07T17:02:57;3.10;99.90
26595;DHT22;14238;49.496;8.154;2022-12-07T17:05:23;3.10;99.90
26595;DHT22;14238;49.496;8.154;2022-12-07T17:07:50;3.20;99.90
26595;DHT22;14238;49.496;8.154;2022-12-07T17:10:15;3.20;99.90
26595;DHT22;14238;49.496;8.154;2022-12-07T17:12:41;3.10;99.90
26595;DHT22;14238;49.496;8.154;2022-12-07T17:15:07;3.00;99.90
26595;DHT22;14238;49.496;8.154;2022-12-07T17:17:46;3.00;99.90
26595;DHT22;14238;49.496;8.154;2022-12-07T17:20:16;2.80;99.90
26595;DHT22;14238;49.496;8.154;2022-12-07T17:22:43;2.80;99.90
26595;DHT22;14238;49.496;8.154;2022-12-07T17:25:08;2.80;99.90
26595;DHT22;14238;49.496;8.154;2022-12-07T17:27:35;2.90;99.90
26595;DHT22;14238;49.496;8.154;2022-12-07T17:30:01;3.00;99.90
26595;DHT22;14238;49.496;8.154;2022-12-07T17:32:26;3.00;99.90
26595;DHT22;14238;49.496;8.154;2022-12-07T17:34:52;3.10;99.90
26595;DHT22;14238;49.496;8.154;2022-12-07T17:37:17;3.10;99.90